createdAt,value
2022-07-25T00:02:17.172Z,28.70
2022-07-25T00:04:45.543Z,28.69
2022-07-25T00:07:13.854Z,28.68
2022-07-25T00:09:42.090Z,28.67
2022-07-25T00:12:11.789Z,28.63
2022-07-25T00:14:40.077Z,28.62
2022-07-25T00:17:08.427Z,28.60
2022-07-25T00:19:36.689Z,28.57
2022-07-25T00:22:04.995Z,28.54
2022-07-25T00:24:33.737Z,28.53
2022-07-25T00:27:02.804Z,28.51
2022-07-25T00:29:32.509Z,28.49
2022-07-25T00:32:00.772Z,28.48
2022-07-25T00:34:29.023Z,28.49
2022-07-25T00:36:57.280Z,28.47
2022-07-25T00:39:25.598Z,28.48
2022-07-25T00:41:53.859Z,28.44
2022-07-25T00:44:25.837Z,28.43
2022-07-25T00:46:56.677Z,28.43
2022-07-25T00:49:25.853Z,28.42
2022-07-25T00:51:55.172Z,28.39
2022-07-25T00:54:24.145Z,28.36
2022-07-25T00:56:52.681Z,28.36
2022-07-25T00:59:20.983Z,28.35
2022-07-25T01:01:49.355Z,28.36
2022-07-25T01:04:19.049Z,28.33
2022-07-25T01:06:47.473Z,28.31
2022-07-25T01:09:15.818Z,28.30
2022-07-25T01:11:44.312Z,28.30
2022-07-25T01:14:12.685Z,28.29
2022-07-25T01:16:41.664Z,28.28
2022-07-25T01:19:10.184Z,28.24
2022-07-25T01:21:40.934Z,28.23
2022-07-25T01:24:09.878Z,28.20
2022-07-25T01:26:38.721Z,28.19
2022-07-25T01:29:07.116Z,28.17
2022-07-25T01:31:35.591Z,28.14
2022-07-25T01:34:04.329Z,28.15
2022-07-25T01:36:32.831Z,28.17
2022-07-25T01:39:02.433Z,28.13
2022-07-25T01:41:31.884Z,28.13
2022-07-25T01:44:00.268Z,28.13
2022-07-25T01:46:28.643Z,28.10
2022-07-25T01:48:57.080Z,28.06
2022-07-25T01:51:26.408Z,28.08
2022-07-25T01:53:54.893Z,28.06
2022-07-25T01:56:24.598Z,28.06
2022-07-25T01:58:53.156Z,28.05
2022-07-25T02:01:22.246Z,28.03
2022-07-25T02:03:51.409Z,28.02
2022-07-25T02:06:20.927Z,28.01
2022-07-25T02:08:49.286Z,27.98
2022-07-25T02:11:18.296Z,27.96
2022-07-25T02:13:48.010Z,27.90
2022-07-25T02:16:16.288Z,27.91
2022-07-25T02:18:45.764Z,27.91
2022-07-25T02:21:14.811Z,27.90
2022-07-25T02:23:43.759Z,27.90
2022-07-25T02:26:12.208Z,27.87
2022-07-25T02:28:41.221Z,27.85
2022-07-25T02:31:10.957Z,27.85
2022-07-25T02:33:39.406Z,27.81
2022-07-25T02:36:08.678Z,27.83
2022-07-25T02:38:37.196Z,27.79
2022-07-25T02:41:06.422Z,27.81
2022-07-25T02:43:34.736Z,27.79
2022-07-25T02:46:03.329Z,27.78
2022-07-25T02:48:33.138Z,27.77
2022-07-25T02:51:01.482Z,27.76
2022-07-25T02:53:54.933Z,27.75
2022-07-25T02:56:18.206Z,27.74
2022-07-25T02:58:49.519Z,27.72
2022-07-25T03:01:18.074Z,27.72
2022-07-25T03:03:47.909Z,27.70
2022-07-25T03:06:16.531Z,27.69
2022-07-25T03:08:44.838Z,27.65
2022-07-25T03:11:13.676Z,27.64
2022-07-25T03:13:41.969Z,27.62
2022-07-25T03:16:10.992Z,27.60
2022-07-25T03:18:39.375Z,27.59
2022-07-25T03:21:09.167Z,27.55
2022-07-25T03:23:37.487Z,27.56
2022-07-25T03:26:06.156Z,27.56
2022-07-25T03:28:34.539Z,27.56
2022-07-25T03:31:03.065Z,27.56
2022-07-25T03:33:31.424Z,27.55
2022-07-25T03:35:59.705Z,27.54
2022-07-25T03:38:29.657Z,27.54
2022-07-25T03:40:57.970Z,27.53
2022-07-25T03:43:26.264Z,27.50
2022-07-25T03:45:54.606Z,27.49
2022-07-25T03:48:23.046Z,27.48
2022-07-25T03:50:51.433Z,27.47
2022-07-25T03:53:19.724Z,27.44
2022-07-25T03:55:49.437Z,27.42
2022-07-25T03:58:17.969Z,27.39
2022-07-25T04:00:47.864Z,27.37
2022-07-25T04:03:16.463Z,27.30
2022-07-25T04:05:47.618Z,27.33
2022-07-25T04:08:18.294Z,27.31
2022-07-25T04:10:47.307Z,27.31
2022-07-25T04:13:17.014Z,27.28
2022-07-25T04:15:45.390Z,27.27
2022-07-25T04:18:14.327Z,27.26
2022-07-25T04:20:47.889Z,27.26
2022-07-25T04:23:17.093Z,27.26
2022-07-25T04:25:45.359Z,27.24
2022-07-25T04:28:13.698Z,27.22
2022-07-25T04:30:45.720Z,27.39
2022-07-25T04:33:21.398Z,26.94
2022-07-25T04:36:15.332Z,26.67
2022-07-25T04:38:44.047Z,26.64
2022-07-25T04:41:12.408Z,26.65
2022-07-25T04:43:44.902Z,26.58
2022-07-25T04:46:20.925Z,26.60
2022-07-25T04:48:50.059Z,26.44
2022-07-25T04:51:18.762Z,26.35
2022-07-25T04:53:50.177Z,26.33
2022-07-25T04:56:19.298Z,26.33
2022-07-25T04:58:47.623Z,26.43
2022-07-25T05:01:23.267Z,26.29
2022-07-25T05:04:59.121Z,26.15
2022-07-25T05:07:26.879Z,26.17
2022-07-25T05:10:01.631Z,25.90
2022-07-25T05:12:31.276Z,25.83
2022-07-25T05:14:59.921Z,25.72
2022-07-25T05:17:29.617Z,25.92
2022-07-25T05:19:58.597Z,25.96
2022-07-25T05:22:29.099Z,25.79
2022-07-25T05:25:16.305Z,25.78
2022-07-25T05:27:59.342Z,25.76
2022-07-25T05:30:54.246Z,25.85
2022-07-25T05:33:23.902Z,25.96
2022-07-25T05:35:52.265Z,25.99
2022-07-25T05:38:20.619Z,25.97
2022-07-25T05:40:52.320Z,25.97
2022-07-25T05:43:20.818Z,25.95
2022-07-25T05:45:49.249Z,25.95
2022-07-25T05:48:17.649Z,25.82
2022-07-25T05:50:47.432Z,25.70
2022-07-25T05:53:15.768Z,25.71
2022-07-25T05:55:44.185Z,25.69
2022-07-25T05:58:12.531Z,25.66
2022-07-25T06:00:41.141Z,25.77
2022-07-25T06:03:09.642Z,25.82
2022-07-25T06:05:38.192Z,25.76
2022-07-25T06:08:08.449Z,25.64
2022-07-25T06:10:36.873Z,25.70
2022-07-25T06:13:05.825Z,25.77
2022-07-25T06:16:03.532Z,25.79
2022-07-25T06:19:13.385Z,25.80
2022-07-25T06:21:43.200Z,25.85
2022-07-25T06:24:15.769Z,25.86
2022-07-25T06:27:00.578Z,25.86
2022-07-25T06:30:06.634Z,25.57
2022-07-25T06:32:44.645Z,25.49
2022-07-25T06:35:32.431Z,25.59
2022-07-25T06:38:01.947Z,25.65
2022-07-25T06:40:31.996Z,25.67
2022-07-25T06:43:00.310Z,25.65
2022-07-25T06:45:28.873Z,25.69
2022-07-25T06:47:57.203Z,25.64
2022-07-25T06:50:28.472Z,25.81
2022-07-25T06:52:56.803Z,25.83
2022-07-25T06:55:25.104Z,25.69
2022-07-25T06:57:57.024Z,25.85
2022-07-25T07:00:27.562Z,25.91
2022-07-25T07:02:58.417Z,25.77
2022-07-25T07:05:29.754Z,25.70
2022-07-25T07:07:58.256Z,25.73
2022-07-25T07:10:28.226Z,25.79
2022-07-25T07:13:07.735Z,25.88
2022-07-25T07:15:37.902Z,25.94
2022-07-25T07:18:10.650Z,25.96
2022-07-25T07:20:41.157Z,26.03
2022-07-25T07:23:10.626Z,26.08
2022-07-25T07:25:39.570Z,26.09
2022-07-25T07:28:09.963Z,25.99
2022-07-25T07:31:13.325Z,26.13
2022-07-25T07:33:26.766Z,26.14
2022-07-25T07:35:56.878Z,26.15
2022-07-25T07:38:25.616Z,26.07
2022-07-25T07:40:54.289Z,26.16
2022-07-25T07:43:29.195Z,26.24
2022-07-25T07:46:00.975Z,26.31
2022-07-25T07:48:30.203Z,26.34
2022-07-25T07:50:59.152Z,26.39
2022-07-25T07:53:47.869Z,26.39
2022-07-25T07:56:16.034Z,26.42
2022-07-25T07:58:45.720Z,26.47
2022-07-25T08:01:14.184Z,26.52
2022-07-25T08:03:42.635Z,26.52
2022-07-25T08:06:11.019Z,26.64
2022-07-25T08:08:39.624Z,26.76
2022-07-25T08:11:08.016Z,26.63
2022-07-25T08:13:38.191Z,26.71
2022-07-25T08:16:08.920Z,26.82
2022-07-25T08:18:37.596Z,26.75
2022-07-25T08:21:06.928Z,26.71
2022-07-25T08:23:38.183Z,26.79
2022-07-25T08:26:07.528Z,26.92
2022-07-25T08:28:35.813Z,27.00
2022-07-25T08:31:04.230Z,26.99
2022-07-25T08:33:33.923Z,27.16
2022-07-25T08:36:02.493Z,27.10
2022-07-25T08:38:30.969Z,27.19
2022-07-25T08:40:59.849Z,27.31
2022-07-25T08:43:29.275Z,27.27
2022-07-25T08:46:01.141Z,27.22
2022-07-25T08:48:30.221Z,27.41
2022-07-25T08:51:00.830Z,27.36
2022-07-25T08:53:34.689Z,27.39
2022-07-25T08:56:11.260Z,27.40
2022-07-25T08:58:43.948Z,27.22
2022-07-25T09:01:13.276Z,27.47
2022-07-25T09:03:43.177Z,27.62
2022-07-25T09:06:18.223Z,27.77
2022-07-25T09:08:54.819Z,27.69
2022-07-25T09:11:30.573Z,27.96
2022-07-25T09:14:04.841Z,27.97
2022-07-25T09:16:35.263Z,28.07
2022-07-25T09:19:08.628Z,28.00
2022-07-25T09:21:39.851Z,28.00
2022-07-25T09:24:13.082Z,28.16
2022-07-25T09:26:49.452Z,28.21
2022-07-25T09:29:19.841Z,28.23
2022-07-25T09:31:48.793Z,28.30
2022-07-25T09:34:38.119Z,28.46
2022-07-25T09:37:09.055Z,28.50
2022-07-25T09:39:45.380Z,28.67
2022-07-25T09:42:23.732Z,28.66
2022-07-25T09:45:03.273Z,28.66
2022-07-25T09:47:33.064Z,28.52
2022-07-25T09:50:01.929Z,28.51
2022-07-25T09:52:31.761Z,28.91
2022-07-25T09:55:03.435Z,28.86
2022-07-25T09:57:31.884Z,28.74
2022-07-25T10:00:00.910Z,28.80
2022-07-25T10:02:42.190Z,28.92
2022-07-25T10:05:14.924Z,29.14
2022-07-25T10:07:47.682Z,29.20
2022-07-25T10:10:25.892Z,29.13
2022-07-25T10:13:10.483Z,29.26
2022-07-25T10:15:50.078Z,29.38
2022-07-25T10:18:21.503Z,29.42
2022-07-25T10:20:51.969Z,29.66
2022-07-25T10:23:24.152Z,29.68
2022-07-25T10:26:04.305Z,29.88
2022-07-25T10:28:41.556Z,29.66
2022-07-25T10:31:25.540Z,29.59
2022-07-25T10:33:56.308Z,29.57
2022-07-25T10:36:25.602Z,29.65
2022-07-25T10:38:58.798Z,29.68
2022-07-25T10:41:28.754Z,29.79
2022-07-25T10:44:01.778Z,29.76
2022-07-25T10:46:32.683Z,29.87
2022-07-25T10:49:02.800Z,29.87
2022-07-25T10:51:38.207Z,29.97
2022-07-25T10:54:15.174Z,30.10
2022-07-25T10:56:52.965Z,29.93
2022-07-25T10:59:32.969Z,29.62
2022-07-25T11:02:01.860Z,29.50
2022-07-25T11:04:31.361Z,29.45
2022-07-25T11:07:09.875Z,29.43
2022-07-25T11:09:40.369Z,29.41
2022-07-25T11:12:09.251Z,29.38
2022-07-25T11:14:41.333Z,29.40
2022-07-25T11:17:15.493Z,29.40
2022-07-25T11:19:45.691Z,29.42
2022-07-25T11:22:14.218Z,29.45
2022-07-25T11:24:51.345Z,29.48
2022-07-25T11:27:24.590Z,29.49
2022-07-25T11:29:53.018Z,29.50
2022-07-25T11:32:21.349Z,29.51
2022-07-25T11:35:00.476Z,29.54
2022-07-25T11:37:35.907Z,29.57
2022-07-25T11:40:16.688Z,29.58
2022-07-25T11:42:47.013Z,29.60
2022-07-25T11:45:19.849Z,29.63
2022-07-25T11:47:49.378Z,29.63
2022-07-25T11:50:17.810Z,29.67
2022-07-25T11:52:46.719Z,29.67
2022-07-25T11:55:18.977Z,29.73
2022-07-25T11:57:48.096Z,29.73
2022-07-25T12:00:19.666Z,29.75
2022-07-25T12:02:49.122Z,29.79
2022-07-25T12:05:19.150Z,29.81
2022-07-25T12:07:49.220Z,29.84
2022-07-25T12:10:21.050Z,29.86
2022-07-25T12:12:51.348Z,29.89
2022-07-25T12:15:21.828Z,29.92
2022-07-25T12:17:50.662Z,29.91
2022-07-25T12:20:20.689Z,29.97
2022-07-25T12:22:50.005Z,29.99
2022-07-25T12:25:19.934Z,30.00
2022-07-25T12:27:48.696Z,30.05
2022-07-25T12:30:17.177Z,30.05
2022-07-25T12:32:45.620Z,30.08
2022-07-25T12:35:16.165Z,30.12
2022-07-25T12:37:45.335Z,30.11
2022-07-25T12:40:15.643Z,30.10
2022-07-25T12:42:46.091Z,30.14
2022-07-25T12:45:15.529Z,30.17
2022-07-25T12:47:45.413Z,30.18
2022-07-25T12:50:15.434Z,30.17
2022-07-25T12:52:44.118Z,30.18
2022-07-25T12:55:14.838Z,30.15
2022-07-25T12:57:43.265Z,30.16
2022-07-25T13:00:17.590Z,30.19
2022-07-25T13:02:46.787Z,30.20
2022-07-25T13:05:15.593Z,30.25
2022-07-25T13:07:43.972Z,30.24
2022-07-25T13:10:12.675Z,30.28
2022-07-25T13:12:41.078Z,30.27
2022-07-25T13:15:36.947Z,30.31
2022-07-25T13:18:05.473Z,30.35
2022-07-25T13:20:36.525Z,30.33
2022-07-25T13:23:20.902Z,30.37
2022-07-25T13:25:54.191Z,30.42
2022-07-25T13:28:23.236Z,30.44
2022-07-25T13:30:57.130Z,30.44
2022-07-25T13:33:29.946Z,30.45
2022-07-25T13:36:16.779Z,30.49
2022-07-25T13:38:48.263Z,30.47
2022-07-25T13:41:17.650Z,30.54
2022-07-25T13:43:58.382Z,30.55
2022-07-25T13:46:33.978Z,30.53
2022-07-25T13:49:08.287Z,30.52
2022-07-25T13:52:04.416Z,30.55
2022-07-25T13:54:34.737Z,30.56
2022-07-25T13:57:07.555Z,30.58
2022-07-25T13:59:56.978Z,30.64
2022-07-25T14:02:26.744Z,30.65
2022-07-25T14:04:55.107Z,30.72
2022-07-25T14:07:23.498Z,30.74
2022-07-25T14:09:51.861Z,30.72
2022-07-25T14:12:37.727Z,30.75
2022-07-25T14:15:19.998Z,30.78
2022-07-25T14:18:12.804Z,30.78
2022-07-25T14:20:46.981Z,30.81
2022-07-25T14:23:15.638Z,30.81
2022-07-25T14:25:43.989Z,30.80
2022-07-25T14:28:12.360Z,30.86
2022-07-25T14:30:40.889Z,30.91
2022-07-25T14:33:09.514Z,30.94
2022-07-25T14:35:39.991Z,30.94
2022-07-25T14:38:08.346Z,30.96
2022-07-25T14:40:37.065Z,30.98
2022-07-25T14:43:05.388Z,31.02
2022-07-25T14:45:34.568Z,31.04
2022-07-25T14:48:03.341Z,31.05
2022-07-25T14:50:31.675Z,31.01
2022-07-25T14:53:01.281Z,31.10
2022-07-25T14:55:29.810Z,31.12
2022-07-25T14:58:02.320Z,31.11
2022-07-25T15:00:30.816Z,31.12
2022-07-25T15:02:59.158Z,31.20
2022-07-25T15:05:27.489Z,31.21
2022-07-25T15:07:55.797Z,31.28
2022-07-25T15:10:25.521Z,31.29
2022-07-25T15:13:07.861Z,31.29
2022-07-25T15:15:42.229Z,31.30
2022-07-25T15:18:13.866Z,31.32
2022-07-25T15:20:42.664Z,31.31
2022-07-25T15:23:10.950Z,31.35
2022-07-25T15:28:29.000Z,31.38
2022-07-25T15:30:57.356Z,31.41
2022-07-25T15:33:25.705Z,31.44
2022-07-25T15:35:54.140Z,31.43
2022-07-25T15:38:22.898Z,31.45
2022-07-25T15:40:52.684Z,31.47
2022-07-25T15:43:21.176Z,31.50
2022-07-25T15:45:49.754Z,31.52
2022-07-25T15:48:18.669Z,31.52
2022-07-25T15:50:49.349Z,31.54
2022-07-25T15:53:17.866Z,31.56
2022-07-25T15:55:46.192Z,31.53
2022-07-25T15:58:18.140Z,31.56
2022-07-25T16:00:46.789Z,31.57
2022-07-25T16:03:15.533Z,31.57
2022-07-25T16:05:44.823Z,31.56
2022-07-25T16:08:13.119Z,31.57
2022-07-25T16:10:41.634Z,31.60
2022-07-25T16:13:09.895Z,31.61
2022-07-25T16:15:39.761Z,31.63
2022-07-25T16:18:08.041Z,31.62
2022-07-25T16:20:36.289Z,31.62
2022-07-25T16:23:04.752Z,31.64
2022-07-25T16:25:32.998Z,31.64
2022-07-25T16:28:01.450Z,31.62
2022-07-25T16:30:29.826Z,31.65
2022-07-25T16:33:00.683Z,31.67
2022-07-25T16:35:29.256Z,31.70
2022-07-25T16:37:57.716Z,31.72
2022-07-25T16:40:30.500Z,31.73
2022-07-25T16:42:59.978Z,31.69
2022-07-25T16:45:28.835Z,31.73
2022-07-25T16:47:57.232Z,31.72
2022-07-25T16:50:26.837Z,31.71
2022-07-25T16:52:55.147Z,31.61
2022-07-25T16:55:23.805Z,31.60
2022-07-25T16:57:52.160Z,31.63
2022-07-25T17:00:20.885Z,31.48
2022-07-25T17:02:52.611Z,29.88
2022-07-25T17:05:21.202Z,29.16
2022-07-25T17:07:58.990Z,29.19
2022-07-25T17:10:30.000Z,29.18
2022-07-25T17:13:02.262Z,28.97
2022-07-25T17:15:31.349Z,28.93
2022-07-25T17:18:00.231Z,28.89
2022-07-25T17:20:28.554Z,29.00
2022-07-25T17:22:58.251Z,28.86
2022-07-25T17:25:26.623Z,28.94
2022-07-25T17:27:55.080Z,28.91
2022-07-25T17:30:23.474Z,28.92
2022-07-25T17:32:53.234Z,29.02
2022-07-25T17:35:21.708Z,29.15
2022-07-25T17:37:50.107Z,29.18
2022-07-25T17:40:20.017Z,29.13
2022-07-25T17:42:48.868Z,29.20
2022-07-25T17:45:17.351Z,29.28
2022-07-25T17:47:45.759Z,29.42
2022-07-25T17:50:14.413Z,29.42
2022-07-25T17:52:42.786Z,29.50
2022-07-25T17:55:12.091Z,29.49
2022-07-25T17:57:43.119Z,29.47
2022-07-25T18:00:13.564Z,29.41
2022-07-25T18:02:42.573Z,29.44
2022-07-25T18:05:10.981Z,29.53
2022-07-25T18:07:40.733Z,29.48
2022-07-25T18:10:09.677Z,29.45
2022-07-25T18:12:38.134Z,29.45
2022-07-25T18:15:09.873Z,29.48
2022-07-25T18:17:38.205Z,29.39
2022-07-25T18:20:07.479Z,29.31
2022-07-25T18:22:38.139Z,29.26
2022-07-25T18:25:07.538Z,29.22
2022-07-25T18:27:35.960Z,29.23
2022-07-25T18:30:05.910Z,29.25
2022-07-25T18:32:35.694Z,29.18
2022-07-25T18:35:04.571Z,29.01
2022-07-25T18:37:33.619Z,28.71
2022-07-25T18:40:02.043Z,28.81
2022-07-25T18:42:30.675Z,28.56
2022-07-25T18:44:59.596Z,28.54
2022-07-25T18:47:32.155Z,28.69
2022-07-25T18:50:02.831Z,28.62
2022-07-25T18:52:35.044Z,28.61
2022-07-25T18:55:04.614Z,28.81
2022-07-25T18:57:33.577Z,28.80
2022-07-25T19:00:03.330Z,28.68
2022-07-25T19:02:32.411Z,28.57
2022-07-25T19:05:02.664Z,28.30
2022-07-25T19:07:31.647Z,28.01
2022-07-25T19:10:00.355Z,27.89
2022-07-25T19:12:29.159Z,27.81
2022-07-25T19:14:57.622Z,28.11
2022-07-25T19:17:25.944Z,28.43
2022-07-25T19:19:54.433Z,28.41
2022-07-25T19:22:24.192Z,28.48
2022-07-25T19:24:52.855Z,28.42
2022-07-25T19:27:23.793Z,28.08
2022-07-25T19:29:52.337Z,27.70
2022-07-25T19:32:22.426Z,27.81
2022-07-25T19:34:50.873Z,27.70
2022-07-25T19:37:19.503Z,27.70
2022-07-25T19:39:49.769Z,27.70
2022-07-25T19:42:18.154Z,27.69
2022-07-25T19:44:46.984Z,27.05
2022-07-25T19:47:15.317Z,27.12
2022-07-25T19:49:43.787Z,27.49
2022-07-25T19:52:12.216Z,27.02
2022-07-25T19:54:40.836Z,27.00
2022-07-25T19:57:10.800Z,27.23
2022-07-25T19:59:39.264Z,27.72
2022-07-25T20:02:07.836Z,27.92
2022-07-25T20:04:37.003Z,27.69
2022-07-25T20:07:05.357Z,27.77
2022-07-25T20:09:34.803Z,27.50
2022-07-25T20:12:03.394Z,27.09
2022-07-25T20:14:33.133Z,26.95
2022-07-25T20:17:03.234Z,27.04
2022-07-25T20:19:31.829Z,26.89
2022-07-25T20:22:00.288Z,27.02
2022-07-25T20:24:28.591Z,27.37
2022-07-25T20:26:57.009Z,27.00
2022-07-25T20:29:25.358Z,27.30
2022-07-25T20:31:55.057Z,27.22
2022-07-25T20:34:23.427Z,27.20
2022-07-25T20:36:51.774Z,27.41
2022-07-25T20:39:20.285Z,27.77
2022-07-25T20:41:48.972Z,27.77
2022-07-25T20:44:17.239Z,27.69
2022-07-25T20:46:45.539Z,27.61
2022-07-25T20:49:15.281Z,27.77
2022-07-25T20:51:43.646Z,27.71
2022-07-25T20:54:12.728Z,27.66
2022-07-25T20:56:41.080Z,26.98
2022-07-25T20:59:09.910Z,26.79
2022-07-25T21:01:38.687Z,26.81
2022-07-25T21:04:07.987Z,26.73
2022-07-25T21:06:37.780Z,26.90
2022-07-25T21:09:06.680Z,26.69
2022-07-25T21:11:35.952Z,26.53
2022-07-25T21:14:04.757Z,26.31
2022-07-25T21:16:33.714Z,26.01
2022-07-25T21:19:02.180Z,26.62
2022-07-25T21:21:30.648Z,26.42
2022-07-25T21:24:00.323Z,26.66
2022-07-25T21:26:29.751Z,26.96
2022-07-25T21:28:58.216Z,26.78
2022-07-25T21:31:26.620Z,27.19
2022-07-25T21:33:55.069Z,27.21
2022-07-25T21:36:23.363Z,26.92
2022-07-25T21:38:51.660Z,27.00
2022-07-25T21:41:21.540Z,26.83
2022-07-25T21:43:49.917Z,26.21
2022-07-25T21:46:18.362Z,26.11
2022-07-25T21:49:04.609Z,26.11
2022-07-25T21:51:40.329Z,25.89
2022-07-25T21:54:09.594Z,26.00
2022-07-25T21:56:41.183Z,25.80
2022-07-25T21:59:10.015Z,25.65
2022-07-25T22:01:39.558Z,25.47
2022-07-25T22:04:08.019Z,26.22
2022-07-25T22:06:36.537Z,26.25
2022-07-25T22:09:05.802Z,26.71
2022-07-25T22:11:42.440Z,26.68
2022-07-25T22:14:16.993Z,26.55
2022-07-25T22:16:45.441Z,26.70
2022-07-25T22:19:14.055Z,27.21
2022-07-25T22:21:42.443Z,27.43
2022-07-25T22:24:11.206Z,27.59
2022-07-25T22:26:39.518Z,27.65
2022-07-25T22:29:08.322Z,27.69
2022-07-25T22:31:39.419Z,27.71
2022-07-25T22:34:08.021Z,27.74
2022-07-25T22:36:36.487Z,27.75
2022-07-25T22:39:05.242Z,27.79
2022-07-25T22:41:33.771Z,27.77
2022-07-25T22:44:02.154Z,27.82
2022-07-25T22:46:31.328Z,27.80
2022-07-25T22:49:01.433Z,27.85
2022-07-25T22:51:30.588Z,27.90
2022-07-25T22:53:59.336Z,27.92
2022-07-25T22:56:27.984Z,27.90
2022-07-25T22:58:56.325Z,27.88
2022-07-25T23:01:24.860Z,27.90
2022-07-25T23:03:53.479Z,27.92
2022-07-25T23:06:23.149Z,27.91
2022-07-25T23:08:51.613Z,27.91
2022-07-25T23:11:19.998Z,27.92
2022-07-25T23:13:48.280Z,27.90
2022-07-25T23:16:16.961Z,27.94
2022-07-25T23:18:45.295Z,27.92
2022-07-25T23:21:13.574Z,27.91
2022-07-25T23:23:43.211Z,27.92
2022-07-25T23:26:11.713Z,27.94
2022-07-25T23:28:39.965Z,27.93
2022-07-25T23:31:08.379Z,27.93
2022-07-25T23:33:37.053Z,27.92
2022-07-25T23:36:06.025Z,27.94
2022-07-25T23:38:34.320Z,27.95
2022-07-25T23:41:04.492Z,27.94
2022-07-25T23:43:56.915Z,27.92
2022-07-25T23:46:21.112Z,27.91
2022-07-25T23:48:56.619Z,27.92
2022-07-25T23:51:25.054Z,27.90
2022-07-25T23:53:53.574Z,27.90
2022-07-25T23:56:23.259Z,27.89
2022-07-25T23:58:51.713Z,27.91
